Time;durP1;ratioP1;P1;durP2;ratioP2;P2;SDS_P1;SDS_P2;PMS_P1;PMS_P2;Temp;Humidity;BMP_temperature;BMP_pressure;BME280_temperature;BME280_humidity;BME280_pressure;Samples;Min_cycle;Max_cycle;Signal;HPM_P1;HPM_P2
2021/01/21 00:00:47;;;;;;;2.15;1.02;;;11.00;99.90;;;;;;4849444;29;20091;-73
2021/01/21 00:03:13;;;;;;;1.75;1.08;;;11.00;99.90;;;;;;4842552;29;20121;-72
2021/01/21 00:05:38;;;;;;;5.60;1.27;;;11.00;99.90;;;;;;4843288;29;20033;-72
2021/01/21 00:08:04;;;;;;;5.93;1.67;;;11.00;99.90;;;;;;4857743;29;20038;-74
2021/01/21 00:10:30;;;;;;;4.32;1.20;;;11.10;99.90;;;;;;4843322;29;20037;-73
2021/01/21 00:12:55;;;;;;;1.38;0.90;;;11.00;99.90;;;;;;4843844;29;20036;-72
2021/01/21 00:15:21;;;;;;;2.72;1.60;;;11.10;99.90;;;;;;4842665;29;20038;-75
2021/01/21 00:17:46;;;;;;;2.47;1.08;;;11.10;99.90;;;;;;4856736;29;20117;-73
2021/01/21 00:20:13;;;;;;;3.95;1.25;;;11.10;99.90;;;;;;4843337;29;20041;-73
2021/01/21 00:22:39;;;;;;;5.40;1.55;;;11.10;99.90;;;;;;4857462;29;20022;-72
2021/01/21 00:25:05;;;;;;;4.88;1.23;;;11.00;99.90;;;;;;4843219;29;20056;-74
2021/01/21 00:27:31;;;;;;;2.90;1.13;;;11.10;99.90;;;;;;4857738;29;20498;-72
2021/01/21 00:29:57;;;;;;;2.00;1.35;;;11.10;99.90;;;;;;4843200;29;20040;-73
2021/01/21 00:32:23;;;;;;;2.22;0.90;;;11.10;99.90;;;;;;4842347;29;20041;-74
2021/01/21 00:34:48;;;;;;;3.00;1.40;;;11.10;99.90;;;;;;4842714;29;20033;-72
2021/01/21 00:37:14;;;;;;;1.45;1.20;;;11.10;99.90;;;;;;4842857;29;20026;-74
2021/01/21 00:39:40;;;;;;;3.13;1.05;;;11.10;99.90;;;;;;4843034;29;20052;-73
2021/01/21 00:42:05;;;;;;;1.20;1.05;;;11.20;99.90;;;;;;4843233;29;20479;-73
2021/01/21 00:44:31;;;;;;;1.45;0.82;;;11.20;99.90;;;;;;4842181;29;20036;-73
2021/01/21 00:46:57;;;;;;;6.78;1.10;;;11.20;99.90;;;;;;4856748;29;20452;-72
2021/01/21 00:49:23;;;;;;;4.00;1.00;;;11.20;99.90;;;;;;4842252;29;20022;-73
2021/01/21 00:51:49;;;;;;;3.05;1.17;;;11.20;99.90;;;;;;4842732;29;20025;-72
2021/01/21 00:54:14;;;;;;;3.67;1.17;;;11.20;99.90;;;;;;4841772;29;20026;-73
2021/01/21 00:56:41;;;;;;;1.20;1.08;;;11.20;99.90;;;;;;4843172;29;20045;-73
2021/01/21 00:59:07;;;;;;;1.35;1.10;;;11.20;99.90;;;;;;4857058;29;20045;-73
2021/01/21 01:01:33;;;;;;;4.90;1.40;;;11.10;99.90;;;;;;4856466;29;20438;-73
2021/01/21 01:03:58;;;;;;;1.83;1.25;;;10.70;99.90;;;;;;4856109;29;20053;-73
2021/01/21 01:06:24;;;;;;;4.55;1.40;;;10.40;99.90;;;;;;4842219;29;20033;-73
2021/01/21 01:08:50;;;;;;;3.75;1.38;;;10.10;99.90;;;;;;4856565;29;20178;-74
2021/01/21 01:11:15;;;;;;;3.28;1.23;;;10.00;99.90;;;;;;4856777;29;20037;-73
2021/01/21 01:13:41;;;;;;;3.30;1.17;;;9.90;99.90;;;;;;4842472;29;20032;-73
2021/01/21 01:16:07;;;;;;;2.47;1.40;;;9.80;99.90;;;;;;4842270;29;20034;-74
2021/01/21 01:18:32;;;;;;;1.33;1.20;;;9.80;99.90;;;;;;4855787;29;20026;-72
2021/01/21 01:20:58;;;;;;;4.90;1.52;;;9.80;99.90;;;;;;4841794;29;20438;-73
2021/01/21 01:23:24;;;;;;;3.92;1.10;;;9.80;99.90;;;;;;4842467;29;20048;-73
2021/01/21 01:25:53;;;;;;;2.88;1.02;;;9.80;99.90;;;;;;4856860;29;20507;-73
2021/01/21 01:28:18;;;;;;;2.22;1.08;;;9.80;99.90;;;;;;4842085;29;20022;-73
2021/01/21 01:30:44;;;;;;;3.13;1.13;;;9.80;99.90;;;;;;4841344;29;20459;-73
2021/01/21 01:33:10;;;;;;;2.70;1.17;;;9.90;99.90;;;;;;4856330;29;20121;-73
2021/01/21 01:35:35;;;;;;;1.75;1.10;;;9.90;99.90;;;;;;4841606;29;20388;-73
2021/01/21 01:38:01;;;;;;;2.15;1.02;;;10.00;99.90;;;;;;4856485;29;20026;-73
2021/01/21 01:40:26;;;;;;;1.17;1.00;;;10.10;99.90;;;;;;4842491;29;20538;-73
2021/01/21 01:42:52;;;;;;;1.27;1.00;;;10.20;99.90;;;;;;4841217;29;20432;-74
2021/01/21 01:45:17;;;;;;;3.17;1.20;;;10.20;99.90;;;;;;4842155;29;20030;-74
2021/01/21 01:47:45;;;;;;;1.90;1.02;;;10.30;99.90;;;;;;4856269;29;20062;-73
2021/01/21 01:50:13;;;;;;;0.77;0.70;;;10.40;99.90;;;;;;4842073;29;20435;-74
2021/01/21 01:52:41;;;;;;;2.75;1.10;;;10.40;99.90;;;;;;4841633;29;20030;-74
2021/01/21 01:55:16;;;;;;;2.17;0.80;;;10.60;99.90;;;;;;4825409;29;20086;-74
2021/01/21 01:57:47;;;;;;;1.85;1.30;;;10.70;99.90;;;;;;4841709;29;20101;-74
2021/01/21 02:00:13;;;;;;;7.47;1.08;;;10.70;99.90;;;;;;4856333;29;20030;-74
2021/01/21 02:02:39;;;;;;;4.13;1.60;;;10.80;99.90;;;;;;4842595;29;20483;-74
2021/01/21 02:05:05;;;;;;;1.98;1.10;;;10.90;99.90;;;;;;4842383;29;20484;-74
2021/01/21 02:07:31;;;;;;;2.85;0.98;;;11.00;99.90;;;;;;4839688;29;20045;-73
2021/01/21 02:09:59;;;;;;;1.80;1.00;;;11.00;99.90;;;;;;4840505;29;20026;-73
2021/01/21 02:13:13;;;;;;;2.97;1.35;;;11.10;99.90;;;;;;4841950;29;20033;-73
2021/01/21 02:15:56;;;;;;;6.65;1.38;;;11.10;99.90;;;;;;4772598;30;20135;-74
2021/01/21 02:18:41;;;;;;;7.03;1.10;;;11.10;99.90;;;;;;4785098;30;20071;-73
2021/01/21 02:21:13;;;;;;;2.03;1.15;;;11.10;99.90;;;;;;4839640;29;20037;-73
2021/01/21 02:24:12;;;;;;;1.90;1.00;;;11.10;99.90;;;;;;4856470;29;20034;-74
2021/01/21 02:26:55;;;;;;;3.30;1.10;;;11.20;99.90;;;;;;4855783;29;20479;-74
2021/01/21 02:29:30;;;;;;;1.48;0.85;;;11.30;99.90;;;;;;4840580;29;20034;-73
2021/01/21 02:32:11;;;;;;;3.97;0.90;;;11.30;99.90;;;;;;4841057;29;20081;-74
2021/01/21 02:34:40;;;;;;;1.08;0.70;;;11.40;99.90;;;;;;4845722;29;20127;-73
2021/01/21 02:37:14;;;;;;;3.05;0.68;;;11.40;99.90;;;;;;4859576;29;20479;-73
2021/01/21 02:39:44;;;;;;;2.53;0.85;;;11.50;99.90;;;;;;4859820;29;20061;-74
2021/01/21 02:42:11;;;;;;;2.63;0.90;;;11.50;99.90;;;;;;4845355;29;20033;-74
2021/01/21 02:44:36;;;;;;;1.20;0.98;;;11.60;99.90;;;;;;4844330;29;20090;-74
2021/01/21 02:47:02;;;;;;;6.45;0.98;;;11.70;99.90;;;;;;4845042;29;20433;-74
2021/01/21 02:49:28;;;;;;;3.97;1.10;;;11.70;99.90;;;;;;4859381;29;20407;-73
2021/01/21 02:52:46;;;;;;;1.33;0.80;;;11.70;99.90;;;;;;4845833;29;20033;-73
2021/01/21 02:55:25;;;;;;;1.05;0.80;;;11.60;99.90;;;;;;4841988;29;20053;-74
2021/01/21 02:58:21;;;;;;;2.58;0.85;;;11.50;99.90;;;;;;4859072;29;20156;-74
2021/01/21 03:00:49;;;;;;;6.18;0.80;;;11.40;99.90;;;;;;4851194;29;20037;-74
2021/01/21 03:03:18;;;;;;;4.60;0.85;;;11.20;99.90;;;;;;4844854;29;20034;-74
2021/01/21 03:05:49;;;;;;;2.40;1.05;;;11.00;99.90;;;;;;4845094;29;20041;-74
2021/01/21 03:08:15;;;;;;;2.58;1.55;;;10.80;99.90;;;;;;4844864;29;22148;-73
2021/01/21 03:10:41;;;;;;;4.55;2.00;;;10.70;99.90;;;;;;4859149;29;20050;-74
2021/01/21 03:13:06;;;;;;;1.75;0.95;;;10.60;99.90;;;;;;4845197;29;20032;-75
2021/01/21 03:15:32;;;;;;;2.05;0.93;;;10.50;99.90;;;;;;4858635;29;20348;-74
2021/01/21 03:17:57;;;;;;;3.45;1.17;;;10.50;99.90;;;;;;4858783;29;20026;-74
2021/01/21 03:20:23;;;;;;;1.52;1.00;;;10.50;99.90;;;;;;4842876;29;20030;-75
2021/01/21 03:22:49;;;;;;;2.03;0.90;;;10.50;99.90;;;;;;4843642;29;20490;-73
2021/01/21 03:25:14;;;;;;;2.15;0.82;;;10.30;99.90;;;;;;4859003;29;20026;-73
2021/01/21 03:27:40;;;;;;;2.72;1.75;;;10.10;99.90;;;;;;4857815;29;20056;-75
2021/01/21 03:30:07;;;;;;;2.70;1.30;;;10.00;99.90;;;;;;4858479;29;20042;-74
2021/01/21 03:32:34;;;;;;;0.87;0.70;;;10.00;99.90;;;;;;4858939;29;20061;-74
2021/01/21 03:35:00;;;;;;;1.60;0.80;;;10.00;99.90;;;;;;4858955;29;20030;-75
2021/01/21 03:37:25;;;;;;;1.35;0.80;;;9.90;99.90;;;;;;4844187;29;20030;-74
2021/01/21 03:39:51;;;;;;;1.45;0.88;;;9.90;99.90;;;;;;4858256;29;20476;-74
2021/01/21 03:42:17;;;;;;;3.85;1.10;;;9.90;99.90;;;;;;4843076;29;20052;-75
2021/01/21 03:44:43;;;;;;;6.18;0.95;;;9.90;99.90;;;;;;4836736;29;20034;-76
2021/01/21 03:47:08;;;;;;;4.85;1.98;;;9.30;99.90;;;;;;4859303;29;20117;-76
2021/01/21 03:49:34;;;;;;;9.65;1.58;;;8.10;99.90;;;;;;4847194;29;20030;-77
2021/01/21 03:52:01;;;;;;;7.82;1.02;;;7.20;99.90;;;;;;4860669;29;20022;-77
2021/01/21 03:54:26;;;;;;;11.20;1.10;;;6.60;99.90;;;;;;4843770;29;20038;-77
2021/01/21 03:56:52;;;;;;;5.85;0.75;;;6.30;99.90;;;;;;4843057;29;20030;-77
2021/01/21 03:59:18;;;;;;;9.60;1.40;;;6.20;99.90;;;;;;4828012;29;20046;-77
2021/01/21 04:01:44;;;;;;;9.10;1.02;;;6.10;99.90;;;;;;4825174;29;20105;-77
2021/01/21 04:04:10;;;;;;;6.60;0.88;;;6.20;99.90;;;;;;4825344;29;20151;-76
2021/01/21 04:06:36;;;;;;;7.15;1.50;;;6.20;99.90;;;;;;4839891;29;20030;-76
2021/01/21 04:09:01;;;;;;;8.65;0.60;;;6.30;99.90;;;;;;4824724;29;20027;-77
2021/01/21 04:11:27;;;;;;;6.70;1.00;;;6.50;99.90;;;;;;4825991;29;20095;-77
2021/01/21 04:13:53;;;;;;;5.38;0.93;;;6.60;99.90;;;;;;4839031;29;20041;-77
2021/01/21 04:16:18;;;;;;;7.20;0.75;;;6.70;99.90;;;;;;4839094;29;20030;-76
2021/01/21 04:18:44;;;;;;;5.65;1.02;;;6.90;99.90;;;;;;4839152;29;20387;-76
2021/01/21 04:21:10;;;;;;;6.57;1.60;;;6.90;99.90;;;;;;4825197;29;20157;-76
2021/01/21 04:23:36;;;;;;;4.13;0.60;;;7.10;99.90;;;;;;4825823;29;20488;-76
2021/01/21 04:26:02;;;;;;;6.20;0.65;;;7.10;99.90;;;;;;4823880;29;20034;-76
2021/01/21 04:28:28;;;;;;;3.67;0.85;;;7.00;99.90;;;;;;4833993;29;20053;-75
2021/01/21 04:30:53;;;;;;;8.68;1.23;;;7.10;99.90;;;;;;4823942;29;20026;-76
2021/01/21 04:33:19;;;;;;;3.03;0.88;;;7.10;99.90;;;;;;4839206;29;20030;-76
2021/01/21 04:35:45;;;;;;;7.85;2.13;;;7.10;99.90;;;;;;4838783;29;20400;-75
2021/01/21 04:38:10;;;;;;;10.38;1.85;;;7.10;99.90;;;;;;4825192;29;20034;-76
2021/01/21 04:40:36;;;;;;;12.40;1.73;;;7.20;99.90;;;;;;4825343;29;20031;-75
2021/01/21 04:43:02;;;;;;;6.00;0.70;;;7.20;99.90;;;;;;4823851;29;20022;-76
2021/01/21 04:45:27;;;;;;;5.30;1.00;;;7.20;99.90;;;;;;4824962;29;20037;-77
2021/01/21 04:47:54;;;;;;;8.95;1.15;;;7.20;99.90;;;;;;4823594;29;20502;-76
2021/01/21 04:50:20;;;;;;;18.25;1.55;;;7.30;99.90;;;;;;4824418;29;20032;-74
2021/01/21 04:52:48;;;;;;;12.73;2.08;;;7.40;99.90;;;;;;4825436;29;20121;-76
2021/01/21 04:55:30;;;;;;;14.32;1.85;;;7.40;99.90;;;;;;4824828;29;20042;-75
2021/01/21 04:58:11;;;;;;;12.70;2.72;;;7.40;99.90;;;;;;4838365;29;20042;-76
2021/01/21 05:00:38;;;;;;;12.23;2.00;;;7.40;99.90;;;;;;4823575;29;20436;-76
2021/01/21 05:03:04;;;;;;;12.50;1.85;;;7.50;99.90;;;;;;4823956;29;20480;-76
2021/01/21 05:05:30;;;;;;;15.00;3.05;;;7.50;99.90;;;;;;4838614;29;20095;-77
2021/01/21 05:07:57;;;;;;;17.15;1.85;;;7.50;99.90;;;;;;4823022;29;20022;-76
2021/01/21 05:10:24;;;;;;;9.75;2.28;;;7.50;99.90;;;;;;4825005;29;20030;-76
2021/01/21 05:12:49;;;;;;;19.02;2.60;;;7.50;99.90;;;;;;4824291;29;20084;-75
2021/01/21 05:15:15;;;;;;;11.30;1.67;;;7.50;99.90;;;;;;4837962;29;20065;-75
2021/01/21 05:17:42;;;;;;;13.68;2.55;;;7.40;99.90;;;;;;4823232;29;20105;-74
2021/01/21 05:20:08;;;;;;;16.70;2.17;;;7.40;99.90;;;;;;4823311;29;20527;-75
2021/01/21 05:22:39;;;;;;;15.32;2.80;;;7.40;99.90;;;;;;4838824;29;20058;-77
2021/01/21 05:25:05;;;;;;;17.45;1.90;;;7.40;99.90;;;;;;4826711;29;20049;-75
2021/01/21 05:27:31;;;;;;;14.40;2.28;;;7.30;99.90;;;;;;4824595;29;20065;-74
2021/01/21 05:30:00;;;;;;;11.20;2.97;;;7.20;99.90;;;;;;4838450;29;20049;-74
2021/01/21 05:32:25;;;;;;;;;;;7.20;99.90;;;;;;4838665;29;20049;-75
2021/01/21 05:34:52;;;;;;;22.75;2.50;;;7.10;99.90;;;;;;4838201;29;19966;-75
2021/01/21 05:37:18;;;;;;;14.90;2.70;;;7.20;99.90;;;;;;4823600;29;20392;-74
2021/01/21 05:39:45;;;;;;;12.07;1.95;;;7.10;99.90;;;;;;4838162;29;20071;-75
2021/01/21 05:42:11;;;;;;;7.28;1.50;;;7.10;99.90;;;;;;4823640;29;20436;-76
2021/01/21 05:44:37;;;;;;;10.00;1.30;;;7.00;99.90;;;;;;4838016;29;20418;-75
2021/01/21 05:47:04;;;;;;;12.88;1.70;;;7.00;99.90;;;;;;4837615;29;20078;-75
2021/01/21 05:49:30;;;;;;;17.17;1.50;;;7.00;99.90;;;;;;4837453;29;20540;-74
2021/01/21 05:51:59;;;;;;;28.60;3.15;;;7.00;99.90;;;;;;4824499;29;20027;-74
2021/01/21 05:54:27;;;;;;;9.63;1.15;;;7.00;99.90;;;;;;4837953;29;20034;-75
2021/01/21 05:56:55;;;;;;;10.52;1.38;;;7.00;99.90;;;;;;4823914;29;20500;-75
2021/01/21 05:59:23;;;;;;;12.55;1.67;;;7.00;99.90;;;;;;4822365;29;20070;-74
2021/01/21 06:01:49;;;;;;;;;;;7.00;99.90;;;;;;4821934;29;20138;-75
2021/01/21 06:04:16;;;;;;;15.88;2.35;;;7.00;99.90;;;;;;4823244;29;19917;-75
2021/01/21 06:06:43;;;;;;;11.85;1.50;;;7.00;99.90;;;;;;4836766;29;20038;-75
2021/01/21 06:09:18;;;;;;;11.80;1.70;;;7.00;99.90;;;;;;4819870;29;20492;-74
2021/01/21 06:11:50;;;;;;;14.38;1.70;;;7.10;99.90;;;;;;4829205;29;20050;-76
2021/01/21 06:14:16;;;;;;;16.17;3.28;;;7.00;99.90;;;;;;4831515;29;20045;-75
2021/01/21 06:16:42;;;;;;;7.18;1.10;;;7.00;99.90;;;;;;4811706;29;20488;-75
2021/01/21 06:19:07;;;;;;;17.17;1.88;;;7.00;99.90;;;;;;4833107;29;20030;-75
2021/01/21 06:21:37;;;;;;;10.18;1.23;;;6.90;99.90;;;;;;4834318;29;20059;-75
2021/01/21 06:24:05;;;;;;;5.50;1.13;;;6.90;99.90;;;;;;4825777;29;20403;-74
2021/01/21 06:26:42;;;;;;;8.70;1.15;;;6.80;99.90;;;;;;4821517;29;20053;-75
2021/01/21 06:29:10;;;;;;;3.75;1.10;;;6.70;99.90;;;;;;4823214;29;20499;-75
2021/01/21 06:31:39;;;;;;;5.82;0.93;;;6.70;99.90;;;;;;4827369;29;20547;-75
2021/01/21 06:34:10;;;;;;;6.57;1.25;;;6.60;99.90;;;;;;4830723;29;20031;-75
2021/01/21 06:36:39;;;;;;;3.55;0.98;;;6.70;99.90;;;;;;4825351;29;20117;-75
2021/01/21 06:39:09;;;;;;;10.15;1.58;;;6.60;99.90;;;;;;4818257;29;20496;-75
2021/01/21 06:41:36;;;;;;;15.55;1.60;;;6.60;99.90;;;;;;4820431;29;20046;-75
2021/01/21 06:44:03;;;;;;;6.05;0.98;;;6.50;99.90;;;;;;4832454;29;20030;-74
2021/01/21 06:46:29;;;;;;;7.95;1.13;;;6.50;99.90;;;;;;4824178;29;20656;-74
2021/01/21 06:48:55;;;;;;;11.88;1.38;;;6.40;99.90;;;;;;4836106;29;20097;-75
2021/01/21 06:51:21;;;;;;;11.38;1.08;;;6.40;99.90;;;;;;4829386;29;20034;-74
2021/01/21 06:53:50;;;;;;;5.70;0.88;;;6.40;99.90;;;;;;4823411;29;20496;-75
2021/01/21 06:56:16;;;;;;;5.32;0.98;;;6.50;99.90;;;;;;4836479;29;20034;-76
2021/01/21 06:58:53;;;;;;;10.25;1.27;;;6.50;99.90;;;;;;4840352;29;20444;-74
2021/01/21 07:01:31;;;;;;;9.27;1.58;;;6.50;99.90;;;;;;4855348;29;20500;-75
2021/01/21 07:03:57;;;;;;;5.75;0.90;;;6.50;99.90;;;;;;4841518;29;20429;-74
2021/01/21 07:06:22;;;;;;;11.25;1.95;;;6.50;99.90;;;;;;4825023;29;20487;-74
2021/01/21 07:09:05;;;;;;;11.60;1.70;;;6.50;99.90;;;;;;4841248;29;20026;-75
2021/01/21 07:11:32;;;;;;;7.32;1.25;;;6.40;99.90;;;;;;4840486;29;20045;-74
2021/01/21 07:13:58;;;;;;;14.38;1.20;;;6.40;99.90;;;;;;4841689;29;20040;-74
2021/01/21 07:16:24;;;;;;;8.25;1.15;;;6.40;99.90;;;;;;4833132;29;20046;-76
2021/01/21 07:18:51;;;;;;;10.38;2.45;;;6.30;99.90;;;;;;4841383;29;20716;-75
2021/01/21 07:21:23;;;;;;;5.95;1.10;;;6.10;99.90;;;;;;4844686;29;20034;-74
2021/01/21 07:23:57;;;;;;;4.60;1.10;;;6.10;99.90;;;;;;4844574;29;20033;-73
2021/01/21 07:26:31;;;;;;;5.18;0.82;;;6.00;99.90;;;;;;4858985;29;20038;-74
2021/01/21 07:29:08;;;;;;;8.02;1.75;;;6.00;99.90;;;;;;4844302;29;20086;-74
2021/01/21 07:31:52;;;;;;;13.27;1.30;;;6.00;99.90;;;;;;4843825;29;20081;-75
2021/01/21 07:34:22;;;;;;;5.82;1.05;;;6.00;99.90;;;;;;4825741;29;20041;-74
2021/01/21 07:37:27;;;;;;;14.90;1.10;;;6.00;99.90;;;;;;4844037;29;20433;-74
2021/01/21 07:40:02;;;;;;;6.00;1.08;;;5.90;99.90;;;;;;4853048;29;20034;-74
2021/01/21 07:42:34;;;;;;;9.43;1.27;;;5.90;99.90;;;;;;4844325;29;20045;-75
2021/01/21 07:45:06;;;;;;;14.50;1.85;;;5.90;99.90;;;;;;4844484;29;20071;-75
2021/01/21 07:47:39;;;;;;;11.52;2.85;;;5.90;99.90;;;;;;4858398;29;20034;-74
2021/01/21 07:50:17;;;;;;;8.85;1.30;;;5.90;99.90;;;;;;4843766;29;20038;-75
2021/01/21 07:52:44;;;;;;;14.75;1.98;;;5.80;99.90;;;;;;4858776;29;20411;-74
2021/01/21 07:55:11;;;;;;;3.72;1.48;;;5.80;99.90;;;;;;4844356;29;20541;-75
2021/01/21 07:57:37;;;;;;;9.07;1.35;;;5.80;99.90;;;;;;4858455;29;20022;-75
2021/01/21 08:00:04;;;;;;;19.15;1.90;;;5.80;99.90;;;;;;4857829;29;20040;-75
2021/01/21 08:02:43;;;;;;;6.10;1.35;;;5.80;99.90;;;;;;4842187;29;20038;-74
2021/01/21 08:05:09;;;;;;;6.50;1.25;;;5.70;99.90;;;;;;4843819;29;20365;-75
2021/01/21 08:07:49;;;;;;;7.07;1.10;;;5.70;99.90;;;;;;4840202;29;20034;-75
2021/01/21 08:10:23;;;;;;;15.45;1.92;;;5.70;99.90;;;;;;4842085;29;20030;-74
2021/01/21 08:12:53;;;;;;;6.47;1.60;;;5.80;99.90;;;;;;4843496;29;20317;-75
2021/01/21 08:15:20;;;;;;;10.20;2.13;;;5.80;99.90;;;;;;4855686;29;20030;-74
2021/01/21 08:17:49;;;;;;;4.93;1.03;;;5.70;99.90;;;;;;4857366;29;20026;-75
2021/01/21 08:20:17;;;;;;;4.60;0.90;;;5.80;99.90;;;;;;4857265;29;20064;-76
2021/01/21 08:22:58;;;;;;;10.55;3.08;;;5.80;99.90;;;;;;4842110;29;20568;-75
2021/01/21 08:25:25;;;;;;;7.70;1.52;;;5.80;99.90;;;;;;4843075;29;20034;-75
2021/01/21 08:27:52;;;;;;;16.35;1.58;;;5.80;99.90;;;;;;4843180;29;20057;-75
2021/01/21 08:30:17;;;;;;;8.90;1.88;;;5.80;99.90;;;;;;4842278;29;20026;-74
2021/01/21 08:32:45;;;;;;;9.23;1.38;;;5.90;99.90;;;;;;4855994;29;20037;-74
2021/01/21 08:35:21;;;;;;;7.53;2.70;;;5.90;99.90;;;;;;4855883;29;20061;-75
2021/01/21 08:37:48;;;;;;;13.75;1.73;;;6.00;99.90;;;;;;4843066;29;20030;-75
2021/01/21 08:40:16;;;;;;;19.00;1.90;;;6.00;99.90;;;;;;4857148;29;20049;-75
2021/01/21 08:42:45;;;;;;;8.05;2.15;;;6.00;99.90;;;;;;4837441;29;20034;-75
2021/01/21 08:45:13;;;;;;;7.40;1.50;;;6.10;99.90;;;;;;4840759;29;20113;-76
2021/01/21 08:47:56;;;;;;;15.82;1.45;;;6.10;99.90;;;;;;4841710;29;20030;-75
2021/01/21 08:50:34;;;;;;;14.35;3.90;;;6.20;99.90;;;;;;4856368;29;20096;-74
2021/01/21 08:53:10;;;;;;;19.17;2.08;;;6.20;99.90;;;;;;4857553;29;20132;-75
2021/01/21 08:55:36;;;;;;;15.63;2.55;;;6.30;99.90;;;;;;4840029;29;20061;-75
2021/01/21 08:58:05;;;;;;;7.20;1.48;;;6.30;99.90;;;;;;4843160;29;20484;-74
2021/01/21 09:00:32;;;;;;;13.52;1.45;;;6.30;99.90;;;;;;4856127;29;20121;-73
2021/01/21 09:03:01;;;;;;;9.20;1.70;;;6.30;99.90;;;;;;4841754;29;20082;-75
2021/01/21 09:05:31;;;;;;;14.27;1.58;;;6.40;99.90;;;;;;4842360;29;20045;-75
2021/01/21 09:08:07;;;;;;;19.00;1.58;;;6.50;99.90;;;;;;4854413;29;20034;-73
2021/01/21 09:10:43;;;;;;;14.77;1.83;;;6.50;99.90;;;;;;4839775;29;20049;-72
2021/01/21 09:13:12;;;;;;;9.35;1.92;;;6.60;99.90;;;;;;4836071;29;20030;-73
2021/01/21 09:15:52;;;;;;;13.05;2.13;;;6.60;99.90;;;;;;4842186;29;20037;-73
2021/01/21 09:18:18;;;;;;;12.30;2.33;;;6.70;99.90;;;;;;4843488;29;20407;-76
2021/01/21 09:20:44;;;;;;;7.53;1.33;;;6.70;99.90;;;;;;4857288;29;20502;-75
2021/01/21 09:23:21;;;;;;;12.98;1.17;;;6.80;99.90;;;;;;4856663;29;20037;-73
2021/01/21 09:25:49;;;;;;;8.63;1.65;;;6.80;99.90;;;;;;4842985;29;20121;-73
2021/01/21 09:28:16;;;;;;;14.73;2.85;;;6.80;99.90;;;;;;4842457;29;20034;-74
2021/01/21 09:30:43;;;;;;;5.07;1.40;;;6.90;99.90;;;;;;4855486;29;20025;-74
2021/01/21 09:33:10;;;;;;;4.45;1.30;;;7.00;99.90;;;;;;4833655;29;20044;-73
2021/01/21 09:35:37;;;;;;;10.82;1.60;;;7.10;99.90;;;;;;4843164;29;20482;-73
2021/01/21 09:38:03;;;;;;;15.18;1.27;;;7.20;99.90;;;;;;4843166;29;20360;-74
2021/01/21 09:40:31;;;;;;;8.18;1.58;;;7.40;99.90;;;;;;4855400;29;20026;-73
2021/01/21 09:43:02;;;;;;;14.05;1.77;;;7.40;99.90;;;;;;4841305;29;20063;-72
2021/01/21 09:45:29;;;;;;;8.30;1.38;;;7.50;99.90;;;;;;4852364;29;20060;-72
2021/01/21 09:47:55;;;;;;;6.28;1.95;;;7.40;99.90;;;;;;4856061;29;20049;-73
2021/01/21 09:50:23;;;;;;;7.72;2.38;;;7.30;99.90;;;;;;4854899;29;20038;-73
2021/01/21 09:52:50;;;;;;;4.85;0.85;;;7.20;99.90;;;;;;4840092;29;20121;-73
2021/01/21 09:55:16;;;;;;;10.05;2.05;;;7.20;99.90;;;;;;4839967;29;20077;-73
2021/01/21 09:57:42;;;;;;;6.30;1.50;;;7.20;99.90;;;;;;4853533;29;20030;-73
2021/01/21 10:00:10;;;;;;;12.13;2.17;;;7.30;99.90;;;;;;4841031;29;20190;-74
2021/01/21 10:02:36;;;;;;;14.75;1.50;;;7.30;99.90;;;;;;4855647;29;20022;-73
2021/01/21 10:05:03;;;;;;;12.55;3.42;;;7.30;99.90;;;;;;4831508;29;20086;-73
2021/01/21 10:07:29;;;;;;;23.35;2.33;;;7.30;99.90;;;;;;4856954;29;20045;-73
2021/01/21 10:09:54;;;;;;;12.85;1.52;;;7.40;99.90;;;;;;4835676;29;20037;-74
2021/01/21 10:12:20;;;;;;;7.63;1.48;;;7.40;99.90;;;;;;4844585;29;20104;-74
2021/01/21 10:14:46;;;;;;;10.20;1.45;;;7.50;99.90;;;;;;4855359;29;20079;-73
2021/01/21 10:17:12;;;;;;;7.97;1.35;;;7.60;99.90;;;;;;4854464;29;20398;-73
2021/01/21 10:19:38;;;;;;;12.68;1.48;;;7.70;99.90;;;;;;4854565;29;20472;-72
2021/01/21 10:22:07;;;;;;;10.25;1.80;;;7.70;99.90;;;;;;4856351;29;20042;-73
2021/01/21 10:24:34;;;;;;;10.32;1.58;;;7.80;99.90;;;;;;4839736;29;20045;-73
2021/01/21 10:27:00;;;;;;;12.32;2.30;;;7.80;99.90;;;;;;4840233;29;20026;-73
2021/01/21 10:29:26;;;;;;;6.82;0.93;;;7.80;99.90;;;;;;4855638;29;20105;-73
2021/01/21 10:31:51;;;;;;;14.85;1.42;;;7.90;99.90;;;;;;4839926;29;20067;-73
2021/01/21 10:34:17;;;;;;;6.30;1.30;;;7.90;99.90;;;;;;4841082;29;20425;-75
2021/01/21 10:36:43;;;;;;;15.40;2.10;;;8.00;99.90;;;;;;4842116;29;20507;-72
2021/01/21 10:39:09;;;;;;;12.38;2.03;;;8.10;99.90;;;;;;4842072;29;20022;-73
2021/01/21 10:41:34;;;;;;;11.88;1.50;;;8.10;99.90;;;;;;4839789;29;20431;-74
2021/01/21 10:44:01;;;;;;;8.82;1.80;;;8.20;99.90;;;;;;4834299;29;20058;-74
2021/01/21 10:46:26;;;;;;;10.23;1.35;;;8.20;99.90;;;;;;4842145;29;20030;-71
2021/01/21 10:48:52;;;;;;;6.32;1.13;;;8.30;99.90;;;;;;4855227;29;20129;-73
2021/01/21 10:51:17;;;;;;;8.80;1.35;;;8.40;99.90;;;;;;4844786;29;20034;-73
2021/01/21 10:53:43;;;;;;;9.25;1.23;;;8.40;99.90;;;;;;4842945;29;20029;-73
2021/01/21 10:56:09;;;;;;;4.88;1.10;;;8.30;99.90;;;;;;4850220;29;20419;-73
2021/01/21 10:58:34;;;;;;;7.45;1.33;;;8.30;99.90;;;;;;4857242;29;20038;-72
2021/01/21 11:01:00;;;;;;;4.43;1.20;;;8.40;99.90;;;;;;4858111;29;20454;-73
2021/01/21 11:03:26;;;;;;;5.60;1.55;;;8.40;99.90;;;;;;4858455;29;20062;-74
2021/01/21 11:05:52;;;;;;;11.38;2.47;;;8.50;99.90;;;;;;4844182;29;20041;-75
2021/01/21 11:08:17;;;;;;;7.50;1.30;;;8.50;99.90;;;;;;4845161;29;20025;-72
2021/01/21 11:10:44;;;;;;;8.40;1.00;;;8.50;99.90;;;;;;4844455;29;20053;-74
2021/01/21 11:13:17;;;;;;;7.70;0.95;;;8.50;99.90;;;;;;4845687;29;20030;-73
2021/01/21 11:15:45;;;;;;;5.65;1.58;;;8.50;99.90;;;;;;4844726;29;20121;-73
2021/01/21 11:18:11;;;;;;;7.15;1.48;;;8.50;99.90;;;;;;4857209;29;20484;-74
2021/01/21 11:20:38;;;;;;;6.72;1.15;;;8.50;99.90;;;;;;4843950;29;20026;-75
2021/01/21 11:23:03;;;;;;;6.68;1.95;;;8.50;99.90;;;;;;4857912;29;20471;-74
2021/01/21 11:25:29;;;;;;;5.18;1.08;;;8.40;99.90;;;;;;4856720;29;20074;-75
2021/01/21 11:27:55;;;;;;;2.85;1.17;;;8.30;99.90;;;;;;4857609;29;20503;-74
2021/01/21 11:30:21;;;;;;;4.72;1.10;;;8.30;99.90;;;;;;4858680;29;20026;-74
2021/01/21 11:32:47;;;;;;;5.72;1.33;;;8.40;99.90;;;;;;4842903;29;20538;-73
2021/01/21 11:35:12;;;;;;;5.32;1.08;;;8.50;99.90;;;;;;4824641;29;20140;-73
2021/01/21 11:37:38;;;;;;;4.50;1.27;;;8.50;99.90;;;;;;4821081;29;20101;-75
2021/01/21 11:40:05;;;;;;;7.25;1.27;;;8.50;99.90;;;;;;4843232;29;20089;-73
2021/01/21 11:42:31;;;;;;;8.48;0.88;;;8.60;99.90;;;;;;4843455;29;20026;-73
2021/01/21 11:45:02;;;;;;;5.43;1.65;;;8.70;99.90;;;;;;4842141;29;20042;-74
2021/01/21 11:47:29;;;;;;;8.25;1.40;;;8.70;99.90;;;;;;4856983;29;20436;-73
2021/01/21 11:49:55;;;;;;;6.57;0.93;;;8.90;99.90;;;;;;4844750;29;20428;-75
2021/01/21 11:52:20;;;;;;;6.75;0.93;;;9.00;99.90;;;;;;4855988;29;20122;-75
2021/01/21 11:54:46;;;;;;;3.63;1.25;;;8.90;99.90;;;;;;4839715;29;20023;-73
2021/01/21 11:57:12;;;;;;;6.03;1.27;;;8.90;99.90;;;;;;4840555;29;20070;-74
2021/01/21 11:59:38;;;;;;;9.80;1.13;;;8.90;99.90;;;;;;4843274;29;20057;-74
2021/01/21 12:02:04;;;;;;;2.70;0.90;;;9.10;99.90;;;;;;4856805;29;20352;-73
2021/01/21 12:04:29;;;;;;;14.13;2.10;;;9.20;99.90;;;;;;4861456;29;20030;-73
2021/01/21 12:06:55;;;;;;;5.72;1.45;;;9.30;99.90;;;;;;4859988;29;20124;-76
2021/01/21 12:09:20;;;;;;;4.28;1.10;;;9.30;99.90;;;;;;4861489;29;20124;-73
2021/01/21 12:11:47;;;;;;;4.05;1.38;;;9.20;99.90;;;;;;4861932;29;20033;-75
2021/01/21 12:14:13;;;;;;;12.23;2.28;;;9.30;99.90;;;;;;4859604;29;20038;-76
2021/01/21 12:16:38;;;;;;;5.93;1.27;;;9.30;99.90;;;;;;4860287;29;20382;-73
2021/01/21 12:19:04;;;;;;;6.82;1.08;;;9.20;99.90;;;;;;4860694;29;20026;-73
2021/01/21 12:21:33;;;;;;;2.72;1.10;;;9.30;99.90;;;;;;4862566;29;20036;-73
2021/01/21 12:23:59;;;;;;;3.92;0.93;;;9.20;99.90;;;;;;4860582;29;20026;-74
2021/01/21 12:26:25;;;;;;;9.38;0.93;;;9.20;99.90;;;;;;4859894;29;20053;-73
2021/01/21 12:28:50;;;;;;;2.83;0.70;;;9.10;99.90;;;;;;4862104;29;20029;-73
2021/01/21 12:31:16;;;;;;;7.32;1.25;;;9.20;99.90;;;;;;4861218;29;20475;-72
2021/01/21 12:33:42;;;;;;;10.98;1.20;;;9.20;99.90;;;;;;4860365;29;20029;-73
2021/01/21 12:36:07;;;;;;;3.83;1.15;;;9.20;99.90;;;;;;4860057;29;20125;-74
2021/01/21 12:38:33;;;;;;;6.95;1.63;;;9.20;99.90;;;;;;4845353;29;20022;-73
2021/01/21 12:40:59;;;;;;;6.78;1.40;;;9.20;99.90;;;;;;4861698;29;20037;-73
2021/01/21 12:43:24;;;;;;;5.07;0.80;;;9.20;99.90;;;;;;4860879;29;20112;-73
2021/01/21 12:45:50;;;;;;;15.05;2.25;;;9.20;99.90;;;;;;4859664;29;21177;-74
2021/01/21 12:48:18;;;;;;;5.22;1.30;;;9.10;99.90;;;;;;4861800;29;20357;-73
2021/01/21 12:50:44;;;;;;;;;;;9.10;99.90;;;;;;4862275;29;20364;-73
2021/01/21 12:53:10;;;;;;;10.35;1.40;;;8.90;99.90;;;;;;4861579;29;20433;-73
2021/01/21 12:55:35;;;;;;;3.65;1.00;;;8.90;99.90;;;;;;4861466;29;20034;-73
2021/01/21 12:58:01;;;;;;;3.90;1.40;;;8.90;99.90;;;;;;4860496;29;20053;-73